Metar Cercanos

 

LEPA - Palma De Mallorc, Spain
Distance from station: ONO 38km
Actualización: Mon, 22-Apr-2024 8:00pm CEST
Muy nuboso
Muy nuboso
 Viento del NE
Viento: NE 11 km/h
Temperatura: 9°C
Sensación frio: 7°C
Rocío: 7°C
Humedad: 87%
Barómetro: 1016 hPa
Clouds: Muy nuboso
Visibility: 10 km
Cloud details: Few Clouds 396 m
Muy nuboso 1524 m
2024/04/22 18:00 LEPA 221800Z 05006KT 9999 FEW013 BKN050 09/07 Q1016 NOSIG
LEMH - Mahon/Menorca Is, Spain
Distance from station: ENE 105km
Actualización: Mon, 22-Apr-2024 8:00pm CEST
Few Clouds
Few Clouds
 Viento del N
Viento: N 22 km/h
Temperatura: 12°C
Rocío: 0°C
Humedad: 44%
Barómetro: 1015 hPa
Clouds: Few Clouds
Visibility: 10 km
Cloud details: Few Clouds 914 m
2024/04/22 18:00 LEMH 221800Z 01012KT 9999 FEW030 12/M00 Q1015
 
LEIB - Ibiza/Es Codola, Spain
Distance from station: OSO 165km
Actualización: Mon, 22-Apr-2024 8:00pm CEST
Muy nuboso
Muy nuboso
 Viento del E
Viento: E 28 km/h
Temperatura: 12°C
Rocío: 9°C
Humedad: 82%
Barómetro: 1016 hPa
Clouds: Muy nuboso
Visibility: 10 km
Cloud details: Few Clouds 274 m
Parcialmente nuboso 488 m
Muy nuboso 579 m
2024/04/22 18:00 LEIB 221800Z 08015KT 060V120 9999 FEW009 SCT016 BKN019 12/09 Q1016 NOSIG
LEBL - Barcelona Airpor, Spain
Distance from station: NNO 225km
Actualización: Mon, 22-Apr-2024 8:00pm CEST
Lluvia, Muy nuboso
Lluvia, Muy nuboso
 Viento del S
Viento: S 7 km/h
Temperatura: 12°C
Rocío: 7°C
Humedad: 72%
Barómetro: 1016 hPa
Resumen: Lluvia
Clouds: Muy nuboso
Visibility: 9 km
Cloud details: Parcialmente nuboso 762 m
Few Clouds 914 m
Muy nuboso 1219 m
2024/04/22 18:00 LEBL 221800Z 19004KT 100V250 9000 RA SCT025 FEW030CB BKN040 12/07 Q1016 NOSIG
 
LEVC - Valencia (civ/Mi, Spain
Distance from station: NO 188km
Actualización: Mon, 22-Apr-2024 8:00pm CEST
Muy nuboso
Muy nuboso
 Viento del ESE
Viento: ESE 19 km/h
Temperatura: 14°C
Rocío: 9°C
Humedad: 72%
Barómetro: 1016 hPa
Clouds: Muy nuboso
Visibility: 10 km
Cloud details: Parcialmente nuboso 610 m
Muy nuboso 914 m
2024/04/22 18:00 LEVC 221800Z 12010KT 9999 SCT020 BKN030 14/09 Q1016 NOSIG
LEGE - Gerona/Costa Bra, Spain
Distance from station: N 276km
Actualización: Mon, 22-Apr-2024 8:00pm CEST
Muy nuboso
Muy nuboso
 Viento del SO
Viento: SO 11 km/h
Temperatura: 11°C
Rocío: 2°C
Humedad: 54%
Barómetro: 1015 hPa
Clouds: Muy nuboso
Visibility: 10 km
Cloud details: Few Clouds 1829 m
Muy nuboso 2286 m
2024/04/22 18:00 LEGE 221800Z 22006KT 190V260 9999 FEW060 BKN075 11/02 Q1015
 
LEAL - Alicante/El Alte, Spain
Distance from station: OSO 344km
Actualización: Mon, 22-Apr-2024 8:00pm CEST
Muy nuboso
Muy nuboso
 Viento del E
Viento: E 24 km/h
Temperatura: 16°C
Rocío: 10°C
Humedad: 68%
Barómetro: 1014 hPa
Clouds: Muy nuboso
Visibility: 10 km
Cloud details: Few Clouds 762 m
Muy nuboso 1463 m
2024/04/22 18:00 LEAL 221800Z 08013KT 9999 FEW025 BKN048 16/10 Q1014 NOSIG
LEAM - Almeria Airport, Spain
Distance from station: SSO 56km
Actualización: Mon, 22-Apr-2024 8:00pm CEST
Parcialmente nuboso
Parcialmente nuboso
 Viento del S
Viento: S 11 km/h
Temperatura: 18°C
Rocío: 13°C
Humedad: 73%
Barómetro: 1012 hPa
Clouds: Parcialmente nuboso
Visibility: 10 km
Cloud details: Few Clouds 914 m
Parcialmente nuboso 1524 m
2024/04/22 18:00 LEAM 221800Z 19006KT 160V230 9999 FEW030 SCT050 18/13 Q1012
 
LEZG - Zaragoza (mil/Ci, Spain
Distance from station: NO 431km
Actualización: Mon, 22-Apr-2024 8:00pm CEST
Few Clouds
Few Clouds
 Viento del NO
Viento: NO 54 km/h, Racha: 72 km/h
Temperatura: 12°C
Rocío: -3°C
Humedad: 35%
Barómetro: 1016 hPa
Clouds: Few Clouds
Visibility: 10 km
Cloud details: Few Clouds 1219 m
2024/04/22 18:00 LEZG 221800Z 31029G39KT 280V340 9999 FEW040 12/M03 Q1016
LEMD - Madrid/Barajas, Spain
Distance from station: ONO 234km
Actualización: Mon, 22-Apr-2024 8:00pm CEST
Few Clouds
Few Clouds
 Viento del N
Viento: N 22 km/h
Temperatura: 16°C
Rocío: -3°C
Humedad: 27%
Barómetro: 1015 hPa
Clouds: Few Clouds
Visibility: 10 km
Cloud details: Few Clouds 2438 m
2024/04/22 18:00 LEMD 221800Z 01012KT 330V040 9999 FEW080 16/M03 Q1015 NOSIG
 
LEGR - Granada Airport, Spain
Distance from station: OSO 62km
Actualización: Mon, 22-Apr-2024 8:00pm CEST
Few Clouds
Few Clouds
 Viento del NNO
Viento: NNO 17 km/h
Temperatura: 21°C
Rocío: 7°C
Humedad: 40%
Barómetro: 1013 hPa
Clouds: Few Clouds
Visibility: 10 km
Cloud details: Few Clouds 1524 m
2024/04/22 18:00 LEGR 221800Z 34009KT 300V010 9999 FEW050 21/07 Q1013
LEMG - Malaga (civ/Mil), Spain
Distance from station: OSO 227km
Actualización: Mon, 22-Apr-2024 8:00pm CEST
Few Clouds
Few Clouds
 Viento del ESE
Viento: ESE 15 km/h
Temperatura: 18°C
Rocío: 14°C
Humedad: 78%
Barómetro: 1012 hPa
Clouds: Few Clouds
Visibility: 10 km
Cloud details: Few Clouds 1676 m
2024/04/22 18:00 LEMG 221800Z 12008KT 080V150 9999 FEW055 18/14 Q1012 NOSIG
 
LEZL - Sevilla (civ/Mil, Spain
Distance from station: S 318km
Actualización: Mon, 22-Apr-2024 8:00pm CEST
Despejado
Despejado
 Viento del NNO
Viento: NNO 11 km/h
Temperatura: 27°C
Rocío: 4°C
Humedad: 23%
Barómetro: 1011 hPa
Resumen: Despejado
Visibility: greater than 10 km
2024/04/22 18:00 LEZL 221800Z 33006KT 270V020 CAVOK 27/04 Q1011 NOSIG
LEVT - Vitoria, Spain
Distance from station: NO 226km
Actualización: Mon, 22-Apr-2024 8:00pm CEST
Parcialmente nuboso
Parcialmente nuboso
 Viento del N
Viento: N 22 km/h
Temperatura: 7°C
Sensación frio: 4°C
Rocío: -1°C
Humedad: 57%
Barómetro: 1022 hPa
Clouds: Parcialmente nuboso
Visibility: 10 km
Cloud details: Few Clouds 975 m
Parcialmente nuboso 1311 m
2024/04/22 18:00 LEVT 221800Z 36012KT 9999 FEW032 SCT043 07/M01 Q1022
 
LEBB - Bilbao/Sondica, Spain
Distance from station: NNO 235km
Actualización: Mon, 22-Apr-2024 8:00pm CEST
Parcialmente nuboso
Parcialmente nuboso
 Viento del N
Viento: N 13 km/h
Temperatura: 12°C
Rocío: -1°C
Humedad: 41%
Barómetro: 1024 hPa
Clouds: Parcialmente nuboso
Visibility: 10 km
Cloud details: Parcialmente nuboso 1554 m
2024/04/22 18:00 LEBB 221800Z 36007KT 320V030 9999 SCT051 12/M01 Q1024 NOSIG
LESO - San Sebastian/Fu, Spain
Distance from station: N 231km
Actualización: Mon, 22-Apr-2024 8:00pm CEST
Parcialmente nuboso
Parcialmente nuboso
 Viento del N
Viento: N 13 km/h
Temperatura: 12°C
Rocío: 2°C
Humedad: 51%
Barómetro: 1024 hPa
Clouds: Parcialmente nuboso
Visibility: 10 km
Cloud details: Few Clouds 1067 m
Parcialmente nuboso 1524 m
2024/04/22 18:00 LESO 221800Z 35007KT 300V040 9999 FEW035 SCT050 12/02 Q1024
 
LEVD - Valladolid(Mil/C, Spain
Distance from station: ONO 239km
Actualización: Mon, 22-Apr-2024 8:00pm CEST
Despejado
Despejado
 Viento del ENE
Viento: ENE 28 km/h
Temperatura: 9°C
Sensación frio: 6°C
Rocío: -7°C
Humedad: 32%
Barómetro: 1020 hPa
Resumen: Despejado
Visibility: greater than 10 km
2024/04/22 18:00 LEVD 221800Z 07015KT CAVOK 09/M07 Q1020
LESA - Salamanca (civ/M, Spain
Distance from station: ONO 349km
Actualización: Mon, 22-Apr-2024 8:00pm CEST
Despejado
Despejado
 Viento del ENE
Viento: ENE 24 km/h
Temperatura: 13°C
Rocío: -3°C
Humedad: 33%
Barómetro: 1018 hPa
Resumen: Despejado
Visibility: greater than 10 km
2024/04/22 18:00 LESA 221800Z 07013KT 040V100 CAVOK 13/M03 Q1018
 
LEXJ - Santander/Paraya, Spain
Distance from station: NNO 247km
Actualización: Mon, 22-Apr-2024 8:00pm CEST
Few Clouds
Few Clouds
 Viento del NE
Viento: NE 7 km/h
Temperatura: 12°C
Rocío: 1°C
Humedad: 47%
Barómetro: 1025 hPa
Clouds: Few Clouds
Visibility: 10 km
Cloud details: Few Clouds 1341 m
2024/04/22 18:00 LEXJ 221800Z 04004KT 330V090 9999 FEW044 12/01 Q1025
LEAS - Asturias/Aviles, Spain
Distance from station: NO 214km
Actualización: Mon, 22-Apr-2024 8:00pm CEST
Few Clouds
Few Clouds
 Viento del E
Viento: E 20 km/h, Racha: 41 km/h
Temperatura: 11°C
Rocío: 2°C
Humedad: 54%
Barómetro: 1025 hPa
Clouds: Few Clouds
Visibility: 10 km
Cloud details: Few Clouds 1067 m
2024/04/22 18:00 LEAS 221800Z 09011G22KT 040V140 9999 FEW035 11/02 Q1025 NOSIG
 
LECO - La Coruna/Alvedr, Spain
Distance from station: ONO 222km
Actualización: Mon, 22-Apr-2024 8:00pm CEST
Despejado
Despejado
 Viento del ENE
Viento: ENE 24 km/h
Temperatura: 15°C
Rocío: 1°C
Humedad: 39%
Barómetro: 1022 hPa
Resumen: Despejado
Visibility: greater than 10 km
2024/04/22 18:00 LECO 221800Z 07013KT 040V110 CAVOK 15/01 Q1022 NOSIG
LEVX - Vigo/Peinador, Spain
Distance from station: O 214km
Actualización: Mon, 22-Apr-2024 8:00pm CEST
Despejado
Despejado
 Viento del NNO
Viento: NNO 20 km/h
Temperatura: 21°C
Rocío: 5°C
Humedad: 35%
Barómetro: 1016 hPa
Resumen: Despejado
Visibility: greater than 10 km
2024/04/22 18:00 LEVX 221800Z 34011KT 310V010 CAVOK 21/05 Q1016 NOSIG